Time;durP1;ratioP1;P1;durP2;ratioP2;P2;SDS_P1;SDS_P2;PMS_P1;PMS_P2;Temp;Humidity;BMP_temperature;BMP_pressure;BME280_temperature;BME280_humidity;BME280_pressure;Samples;Min_cycle;Max_cycle;Signal;HPM_P1;HPM_P2
2021/08/02 04:02:38;;;;;;;4.97;3.50;;;16.80;99.90;;;;;;5003915;23;20500;-61
2021/08/02 04:05:05;;;;;;;4.27;3.80;;;16.80;99.90;;;;;;4995150;28;20481;-61
2021/08/02 04:07:32;;;;;;;4.67;3.40;;;16.80;99.90;;;;;;4995163;28;20460;-60
2021/08/02 04:09:59;;;;;;;4.10;3.70;;;16.90;99.90;;;;;;4995072;28;20461;-61
2021/08/02 04:12:25;;;;;;;6.83;4.30;;;16.90;99.90;;;;;;4994754;28;20478;-61
2021/08/02 04:14:52;;;;;;;4.13;3.83;;;16.90;99.90;;;;;;4994869;28;20536;-61
2021/08/02 04:17:19;;;;;;;3.97;3.67;;;17.00;99.90;;;;;;4994800;28;20460;-61
2021/08/02 04:19:47;;;;;;;7.53;4.33;;;17.00;99.90;;;;;;4994599;28;20970;-61
2021/08/02 04:22:13;;;;;;;4.70;4.33;;;17.00;99.90;;;;;;4996236;28;20478;-61
2021/08/02 04:24:40;;;;;;;9.63;4.67;;;17.10;99.90;;;;;;4994725;28;20454;-60
2021/08/02 04:27:07;;;;;;;4.33;4.03;;;17.10;99.90;;;;;;4994811;28;20468;-61
2021/08/02 04:29:33;;;;;;;7.30;4.00;;;17.10;99.90;;;;;;4995157;28;20450;-60
2021/08/02 04:32:00;;;;;;;5.00;4.50;;;17.10;99.90;;;;;;4994607;28;20478;-61
2021/08/02 04:34:27;;;;;;;5.57;4.20;;;17.10;99.90;;;;;;4994735;28;20470;-61
2021/08/02 04:36:55;;;;;;;4.10;3.80;;;17.00;99.90;;;;;;4994071;28;20461;-61
2021/08/02 04:39:21;;;;;;;6.30;4.30;;;17.00;99.90;;;;;;4994481;28;20458;-61
2021/08/02 04:41:48;;;;;;;6.93;4.87;;;16.90;99.90;;;;;;4994385;28;20474;-60
2021/08/02 04:44:15;;;;;;;5.60;4.20;;;16.80;99.90;;;;;;4994367;28;20453;-61
2021/08/02 04:46:41;;;;;;;8.43;4.83;;;16.80;99.90;;;;;;4994403;28;20453;-60
2021/08/02 04:49:08;;;;;;;4.97;4.57;;;16.80;99.90;;;;;;4994464;28;20457;-60
2021/08/02 04:51:35;;;;;;;5.40;4.40;;;16.80;99.90;;;;;;4993903;28;20477;-60
2021/08/02 04:54:03;;;;;;;6.60;4.47;;;16.80;99.90;;;;;;4994287;28;20485;-60
2021/08/02 04:56:30;;;;;;;5.20;4.80;;;16.80;99.90;;;;;;4994346;28;20454;-60
2021/08/02 04:58:57;;;;;;;7.47;4.90;;;16.80;99.90;;;;;;4994212;28;20458;-60
2021/08/02 05:01:23;;;;;;;5.20;4.70;;;16.80;99.90;;;;;;4993862;28;20482;-61
2021/08/02 05:03:50;;;;;;;5.17;4.57;;;16.90;99.90;;;;;;4994275;28;20450;-61
2021/08/02 05:06:17;;;;;;;6.67;4.27;;;16.90;99.90;;;;;;4994107;28;20457;-61
2021/08/02 05:08:43;;;;;;;3.87;3.57;;;17.00;99.90;;;;;;4994214;28;20854;-61
2021/08/02 05:11:11;;;;;;;5.57;4.07;;;17.10;99.90;;;;;;4994272;28;20484;-61
2021/08/02 05:13:38;;;;;;;4.10;3.80;;;17.30;99.90;;;;;;4994143;28;20442;-61
2021/08/02 05:16:06;;;;;;;4.53;4.20;;;17.40;99.90;;;;;;4994679;28;20453;-61
2021/08/02 05:18:33;;;;;;;5.60;3.70;;;17.50;99.90;;;;;;4994396;28;20595;-61
2021/08/02 05:20:59;;;;;;;5.17;3.97;;;17.60;99.90;;;;;;4993724;28;21016;-60
2021/08/02 05:23:26;;;;;;;6.43;4.20;;;17.70;99.90;;;;;;4994013;28;20516;-60
2021/08/02 05:25:53;;;;;;;7.97;3.93;;;17.70;99.90;;;;;;4994153;28;20457;-60
2021/08/02 05:28:21;;;;;;;4.10;3.80;;;17.60;99.90;;;;;;4993938;28;20450;-61
2021/08/02 05:30:48;;;;;;;5.90;4.00;;;17.70;99.90;;;;;;4993583;28;20986;-60
2021/08/02 05:33:15;;;;;;;6.80;3.97;;;17.70;99.90;;;;;;4993760;28;20489;-60
2021/08/02 05:35:42;;;;;;;5.30;4.90;;;17.70;99.90;;;;;;4993994;28;20477;-61
2021/08/02 05:38:08;;;;;;;5.10;4.37;;;17.50;99.90;;;;;;4994018;28;20448;-59
2021/08/02 05:40:35;;;;;;;4.87;4.30;;;17.20;99.90;;;;;;4993910;28;20810;-61
2021/08/02 05:43:02;;;;;;;11.53;4.40;;;17.20;99.90;;;;;;4994187;28;20535;-61
2021/08/02 05:45:30;;;;;;;9.50;4.10;;;17.20;99.90;;;;;;4993943;28;20508;-61
2021/08/02 05:47:57;;;;;;;8.60;3.87;;;17.30;99.90;;;;;;4993873;28;20460;-61
2021/08/02 05:50:23;;;;;;;6.23;4.47;;;17.40;99.90;;;;;;4997349;28;20454;-61
2021/08/02 05:52:50;;;;;;;6.40;4.60;;;17.50;99.90;;;;;;4998742;28;20465;-61
2021/08/02 05:55:17;;;;;;;6.73;4.37;;;17.50;99.90;;;;;;4997366;28;20469;-60
2021/08/02 05:57:44;;;;;;;4.27;3.87;;;17.50;99.90;;;;;;4997296;28;20496;-60
2021/08/02 06:00:12;;;;;;;4.33;3.97;;;17.50;99.90;;;;;;4997320;28;20525;-60
2021/08/02 06:02:40;;;;;;;4.27;3.93;;;17.40;99.90;;;;;;4997437;28;20445;-60
2021/08/02 06:05:08;;;;;;;4.83;4.10;;;17.40;99.90;;;;;;4997267;28;20450;-60
2021/08/02 06:07:36;;;;;;;4.40;3.90;;;17.50;99.90;;;;;;4996950;28;20919;-60
2021/08/02 06:10:03;;;;;;;11.73;4.30;;;17.50;99.90;;;;;;4997237;28;20441;-60
2021/08/02 06:12:30;;;;;;;4.83;4.37;;;17.50;99.90;;;;;;4996859;28;21000;-60
2021/08/02 06:14:57;;;;;;;4.90;4.20;;;17.50;99.90;;;;;;4997013;28;20484;-60
2021/08/02 06:17:23;;;;;;;6.20;5.10;;;17.60;99.90;;;;;;4997089;28;20457;-60
2021/08/02 06:19:51;;;;;;;4.07;3.77;;;17.60;99.90;;;;;;4996755;28;20938;-60
2021/08/02 06:22:18;;;;;;;5.53;4.13;;;17.80;99.90;;;;;;4997056;28;20473;-60
2021/08/02 06:24:45;;;;;;;6.77;4.40;;;17.90;99.90;;;;;;4997037;28;20906;-60
2021/08/02 06:27:12;;;;;;;4.33;3.77;;;18.10;99.90;;;;;;4997016;28;20457;-60
2021/08/02 06:29:39;;;;;;;4.77;4.00;;;18.30;99.90;;;;;;4996934;28;20465;-62
2021/08/02 06:32:06;;;;;;;3.37;3.17;;;18.50;99.90;;;;;;4996373;28;21044;-63
2021/08/02 06:34:33;;;;;;;6.63;3.97;;;18.50;99.90;;;;;;4996591;28;20478;-60
2021/08/02 06:37:01;;;;;;;3.33;2.90;;;18.60;99.90;;;;;;4996672;28;20450;-60
2021/08/02 06:39:28;;;;;;;3.50;3.10;;;18.70;99.90;;;;;;4996571;28;20461;-61
2021/08/02 06:41:55;;;;;;;3.47;3.17;;;18.90;99.90;;;;;;4996317;28;20485;-62
2021/08/02 06:44:21;;;;;;;5.97;3.70;;;19.00;99.90;;;;;;4996190;28;20457;-60
2021/08/02 06:46:48;;;;;;;3.40;3.10;;;19.00;99.90;;;;;;4996475;28;20468;-60
2021/08/02 06:49:15;;;;;;;3.50;3.20;;;19.10;99.90;;;;;;4996347;28;20464;-60
2021/08/02 06:51:41;;;;;;;4.23;3.50;;;19.20;99.90;;;;;;4996216;28;20477;-60
2021/08/02 06:54:09;;;;;;;3.23;2.47;;;19.40;99.90;;;;;;4996273;28;20487;-59
2021/08/02 06:56:36;;;;;;;2.43;2.23;;;19.30;99.90;;;;;;4996225;28;20458;-60
2021/08/02 06:59:03;;;;;;;3.40;2.50;;;19.40;99.90;;;;;;4996108;28;20465;-60
2021/08/02 07:01:30;;;;;;;4.20;2.53;;;19.30;99.90;;;;;;4995200;28;20485;-60
2021/08/02 07:03:56;;;;;;;2.67;2.47;;;19.30;99.90;;;;;;4995848;28;20450;-62
2021/08/02 07:06:23;;;;;;;4.17;3.07;;;19.30;99.90;;;;;;4996480;28;20450;-60
2021/08/02 07:08:51;;;;;;;2.60;2.40;;;19.30;99.90;;;;;;4996209;28;20961;-60
2021/08/02 07:11:19;;;;;;;2.90;2.10;;;19.40;99.90;;;;;;4996290;28;20512;-59
2021/08/02 07:13:46;;;;;;;2.87;2.63;;;19.40;99.90;;;;;;4996486;28;20865;-61
2021/08/02 07:16:12;;;;;;;4.93;2.80;;;19.60;99.90;;;;;;4996860;28;20482;-60
2021/08/02 07:18:39;;;;;;;2.70;2.50;;;19.70;99.90;;;;;;4996633;28;20460;-60
2021/08/02 07:21:06;;;;;;;2.40;2.20;;;19.80;99.90;;;;;;4996142;28;20470;-61
2021/08/02 07:23:32;;;;;;;2.80;2.33;;;19.90;99.90;;;;;;4997805;28;20830;-60
2021/08/02 07:25:59;;;;;;;5.43;2.50;;;20.00;99.90;;;;;;4996527;28;20457;-60
2021/08/02 07:28:27;;;;;;;3.10;2.20;;;20.10;99.90;;;;;;4996203;28;20449;-60
2021/08/02 07:30:54;;;;;;;2.43;2.13;;;20.30;99.90;;;;;;4996763;28;20481;-61
2021/08/02 07:33:22;;;;;;;2.07;1.97;;;20.40;99.90;;;;;;4996143;28;20454;-61
2021/08/02 07:35:49;;;;;;;3.80;2.60;;;20.60;99.90;;;;;;4995583;28;20477;-61
2021/08/02 07:38:15;;;;;;;2.70;2.50;;;20.80;99.90;;;;;;4995593;28;20453;-62
2021/08/02 07:40:42;;;;;;;3.80;2.10;;;21.10;99.90;;;;;;4995477;28;20470;-61
2021/08/02 07:43:09;;;;;;;2.40;2.00;;;21.40;99.90;;;;;;4995658;28;20458;-62
2021/08/02 07:45:37;;;;;;;3.37;2.03;;;21.80;99.90;;;;;;4995359;28;20457;-61
2021/08/02 07:48:04;;;;;;;2.83;1.97;;;22.20;99.90;;;;;;4995220;28;20461;-61
2021/08/02 07:50:31;;;;;;;2.10;1.90;;;22.50;99.90;;;;;;4994976;28;20453;-61
2021/08/02 07:52:58;;;;;;;2.90;2.00;;;23.00;99.90;;;;;;4995257;28;20453;-60
2021/08/02 07:55:25;;;;;;;3.20;2.03;;;23.20;99.90;;;;;;4995090;28;20481;-60
2021/08/02 07:57:52;;;;;;;2.13;2.00;;;23.70;99.90;;;;;;4995481;28;20461;-60
2021/08/02 08:00:18;;;;;;;3.67;2.17;;;23.90;99.90;;;;;;4995102;28;20508;-62
2021/08/02 08:02:47;;;;;;;1.90;1.80;;;24.00;99.90;;;;;;4995430;28;20541;-61
2021/08/02 08:05:15;;;;;;;1.93;1.83;;;24.20;99.90;;;;;;4995164;28;20446;-62
2021/08/02 08:07:47;;;;;;;3.53;1.93;;;24.20;99.90;;;;;;4994996;28;20458;-61
2021/08/02 08:10:15;;;;;;;1.90;1.80;;;23.90;99.90;;;;;;4994628;28;21001;-61
2021/08/02 08:12:42;;;;;;;2.10;1.83;;;24.20;99.90;;;;;;4996244;28;20461;-60
2021/08/02 08:15:10;;;;;;;1.90;1.80;;;24.20;99.90;;;;;;4995633;28;20553;-60
2021/08/02 08:17:38;;;;;;;3.90;1.83;;;24.20;99.90;;;;;;4994682;28;20454;-60
2021/08/02 08:20:08;;;;;;;1.87;1.60;;;24.20;99.90;;;;;;4994855;28;20453;-61
2021/08/02 08:22:35;;;;;;;2.10;1.87;;;24.10;99.90;;;;;;4994766;28;20470;-61
2021/08/02 08:25:02;;;;;;;3.13;1.80;;;24.00;99.90;;;;;;4994749;28;20449;-60
2021/08/02 08:27:29;;;;;;;1.73;1.60;;;24.00;99.90;;;;;;4994865;28;20458;-61
2021/08/02 08:29:56;;;;;;;1.57;1.47;;;24.20;99.90;;;;;;4994676;28;20457;-60
2021/08/02 08:32:22;;;;;;;3.30;2.00;;;24.20;99.90;;;;;;4994692;28;20478;-61
2021/08/02 08:34:49;;;;;;;1.60;1.50;;;24.30;99.90;;;;;;4994685;28;20460;-60
2021/08/02 08:37:17;;;;;;;2.77;1.73;;;24.50;99.90;;;;;;4994588;28;20457;-60
2021/08/02 08:39:44;;;;;;;2.43;1.57;;;24.60;99.90;;;;;;4994514;28;20468;-60
2021/08/02 08:42:13;;;;;;;1.40;1.40;;;24.80;99.90;;;;;;4994713;28;20474;-60
2021/08/02 08:44:39;;;;;;;2.00;1.90;;;25.10;99.90;;;;;;4994534;28;20454;-60
2021/08/02 08:47:06;;;;;;;2.30;1.47;;;25.40;99.90;;;;;;4994440;28;20505;-60
2021/08/02 08:49:34;;;;;;;3.30;2.03;;;25.40;99.90;;;;;;4994202;28;20461;-61
2021/08/02 08:52:01;;;;;;;4.53;1.80;;;25.30;99.90;;;;;;4994600;28;20480;-60
2021/08/02 08:54:31;;;;;;;1.40;1.40;;;25.20;99.90;;;;;;4999314;28;20456;-62
2021/08/02 08:56:58;;;;;;;1.30;1.30;;;25.30;99.90;;;;;;4997448;28;20461;-60
2021/08/02 08:59:25;;;;;;;2.60;1.70;;;25.60;99.60;;;;;;4993968;28;20463;-61
2021/08/02 09:02:02;;;;;;;3.57;2.20;;;26.00;99.60;;;;;;4993846;28;20489;-61
2021/08/02 09:04:30;;;;;;;1.90;1.70;;;26.60;99.90;;;;;;4994406;28;20442;-61
2021/08/02 09:06:59;;;;;;;2.63;1.60;;;27.30;99.80;;;;;;4993977;28;20961;-62
2021/08/02 09:09:28;;;;;;;2.77;1.50;;;28.00;97.00;;;;;;4993879;28;20955;-61
2021/08/02 09:12:08;;;;;;;1.90;1.63;;;28.40;95.60;;;;;;4993822;28;20983;-62
2021/08/02 09:14:35;;;;;;;4.00;1.80;;;28.20;92.30;;;;;;4994214;28;20950;-61
2021/08/02 09:17:02;;;;;;;2.10;1.73;;;28.20;92.00;;;;;;4993942;28;20894;-61
2021/08/02 09:19:39;;;;;;;2.67;1.60;;;28.40;91.10;;;;;;4994276;28;20449;-61
2021/08/02 09:22:06;;;;;;;1.50;1.40;;;28.50;91.40;;;;;;4994226;28;20508;-60
2021/08/02 09:24:35;;;;;;;1.57;1.40;;;28.70;90.60;;;;;;4996626;28;20457;-60
2021/08/02 09:27:02;;;;;;;1.50;1.50;;;28.60;88.00;;;;;;4997975;28;20456;-62
2021/08/02 09:29:31;;;;;;;1.93;1.70;;;28.60;88.70;;;;;;4997641;28;20489;-61
2021/08/02 09:31:59;;;;;;;1.57;1.47;;;28.60;89.10;;;;;;4997661;28;20994;-60
2021/08/02 09:34:27;;;;;;;1.40;1.30;;;28.90;83.60;;;;;;4998582;28;20457;-60
2021/08/02 09:36:58;;;;;;;3.23;1.60;;;28.80;83.70;;;;;;4997840;28;20875;-62
2021/08/02 09:39:30;;;;;;;1.80;1.60;;;28.30;84.50;;;;;;4997824;28;20438;-61
2021/08/02 09:42:04;;;;;;;2.93;1.50;;;28.30;84.50;;;;;;4997613;28;20531;-60
2021/08/02 09:44:32;;;;;;;3.30;2.20;;;28.30;87.00;;;;;;4997768;28;20453;-60
2021/08/02 09:47:00;;;;;;;4.50;1.90;;;28.20;88.50;;;;;;4997529;28;20503;-60
2021/08/02 09:49:28;;;;;;;3.37;2.03;;;27.80;88.50;;;;;;4998046;28;20462;-60
2021/08/02 09:51:56;;;;;;;2.07;1.87;;;27.40;89.20;;;;;;4997709;28;20500;-62
2021/08/02 09:54:27;;;;;;;2.03;1.80;;;26.70;90.80;;;;;;4997138;28;20849;-62
2021/08/02 09:56:55;;;;;;;2.73;2.00;;;26.10;93.20;;;;;;4997593;28;21192;-62
2021/08/02 09:59:23;;;;;;;6.53;2.17;;;25.70;94.30;;;;;;4997466;28;20464;-62
2021/08/02 10:01:54;;;;;;;1.97;1.87;;;25.40;95.90;;;;;;4997351;28;20974;-61
2021/08/02 10:04:23;;;;;;;1.70;1.60;;;24.80;97.70;;;;;;4997551;28;20438;-61
2021/08/02 10:06:50;;;;;;;1.63;1.53;;;24.50;99.90;;;;;;4997289;28;20453;-62
2021/08/02 10:09:17;;;;;;;2.97;2.00;;;24.10;99.90;;;;;;4997412;28;20457;-62
2021/08/02 10:11:44;;;;;;;1.80;1.70;;;23.80;99.90;;;;;;4997008;28;20481;-62
2021/08/02 10:14:13;;;;;;;1.50;1.40;;;23.60;99.90;;;;;;4997013;28;20442;-62
2021/08/02 10:16:44;;;;;;;1.80;1.40;;;23.20;99.90;;;;;;4996643;28;20477;-61
2021/08/02 10:19:14;;;;;;;1.30;1.20;;;23.00;99.90;;;;;;4996972;28;20442;-61
2021/08/02 10:21:42;;;;;;;1.57;1.57;;;23.00;99.90;;;;;;4997222;28;20477;-61
2021/08/02 10:24:10;;;;;;;1.50;1.40;;;22.90;99.90;;;;;;4997114;28;20504;-60
2021/08/02 10:26:37;;;;;;;1.40;1.30;;;22.80;99.90;;;;;;4997023;28;20454;-61
2021/08/02 10:29:07;;;;;;;2.93;1.43;;;22.50;99.90;;;;;;4996715;28;20533;-60
2021/08/02 10:31:43;;;;;;;2.30;1.83;;;22.20;99.90;;;;;;4996455;28;21068;-60
2021/08/02 10:34:16;;;;;;;3.17;2.03;;;21.60;99.90;;;;;;4998047;28;20764;-60
2021/08/02 10:36:43;;;;;;;4.00;2.30;;;20.80;99.90;;;;;;4995730;28;20487;-60
2021/08/02 10:39:21;;;;;;;3.10;2.00;;;20.30;99.90;;;;;;4997523;28;20465;-60
2021/08/02 10:41:48;;;;;;;4.77;2.20;;;19.80;99.90;;;;;;4996922;28;20474;-62
2021/08/02 10:44:16;;;;;;;5.80;2.30;;;19.40;99.90;;;;;;4996896;28;20581;-60
2021/08/02 10:46:43;;;;;;;2.70;2.17;;;19.00;99.90;;;;;;4996821;28;20450;-60
2021/08/02 10:49:11;;;;;;;2.73;2.23;;;18.80;99.90;;;;;;4996655;28;20460;-60
2021/08/02 10:51:47;;;;;;;2.43;2.23;;;18.70;99.90;;;;;;4996972;28;20474;-61
2021/08/02 10:54:14;;;;;;;2.13;2.03;;;18.70;99.90;;;;;;4997611;28;20438;-60
2021/08/02 10:56:41;;;;;;;2.13;2.03;;;18.80;99.90;;;;;;4996504;28;20995;-60
2021/08/02 10:59:08;;;;;;;1.90;1.80;;;19.20;99.90;;;;;;4996912;28;20506;-61
2021/08/02 11:01:37;;;;;;;2.07;1.97;;;19.30;99.90;;;;;;4996304;28;20515;-62
2021/08/02 11:04:11;;;;;;;1.83;1.73;;;19.30;99.90;;;;;;4996916;28;20465;-62
2021/08/02 11:06:38;;;;;;;1.93;1.83;;;19.60;99.90;;;;;;4996331;28;20438;-61
2021/08/02 11:09:06;;;;;;;1.90;1.80;;;20.50;99.90;;;;;;4995781;28;20461;-62
2021/08/02 11:11:36;;;;;;;1.97;1.87;;;21.00;99.90;;;;;;4995978;28;20994;-61
2021/08/02 11:14:07;;;;;;;3.07;1.80;;;21.20;99.90;;;;;;4995991;28;20492;-61
2021/08/02 11:16:40;;;;;;;3.00;1.80;;;21.30;99.90;;;;;;4996039;28;20484;-61
2021/08/02 11:19:18;;;;;;;2.73;2.53;;;21.20;99.90;;;;;;4995993;28;20453;-62
2021/08/02 11:21:46;;;;;;;2.33;2.23;;;20.90;99.90;;;;;;4995859;28;20478;-62
2021/08/02 11:24:14;;;;;;;2.83;2.57;;;21.10;99.90;;;;;;4995907;28;20453;-60
2021/08/02 11:26:49;;;;;;;1.87;1.77;;;21.20;99.90;;;;;;4995785;28;20461;-61
2021/08/02 11:29:23;;;;;;;3.23;2.33;;;21.60;99.90;;;;;;4995843;28;20483;-60
2021/08/02 11:31:54;;;;;;;1.70;1.60;;;21.90;99.90;;;;;;4995735;28;20477;-62
2021/08/02 11:34:22;;;;;;;1.60;1.50;;;22.30;99.90;;;;;;4995442;28;20907;-59
2021/08/02 11:37:00;;;;;;;2.80;1.73;;;22.50;99.90;;;;;;4995482;28;20504;-62
2021/08/02 11:39:30;;;;;;;1.83;1.73;;;22.60;99.90;;;;;;4995514;28;20438;-60
2021/08/02 11:42:01;;;;;;;1.70;1.60;;;22.50;99.90;;;;;;4995250;28;20844;-62
2021/08/02 11:44:28;;;;;;;1.83;1.67;;;22.30;99.90;;;;;;4995332;28;20880;-61
2021/08/02 11:46:55;;;;;;;1.90;1.73;;;22.30;99.90;;;;;;4995167;28;20457;-61
2021/08/02 11:49:22;;;;;;;1.30;1.30;;;22.00;99.90;;;;;;4995373;28;20465;-61
2021/08/02 11:51:49;;;;;;;1.70;1.40;;;22.00;99.90;;;;;;4995277;28;20549;-61
2021/08/02 11:54:20;;;;;;;2.03;1.87;;;22.00;99.90;;;;;;4995373;28;20492;-61
2021/08/02 11:56:49;;;;;;;2.47;2.27;;;22.20;99.90;;;;;;4994852;28;21077;-61
2021/08/02 11:59:20;;;;;;;3.03;2.37;;;22.30;99.90;;;;;;4995207;28;20465;-61
2021/08/02 12:01:47;;;;;;;2.13;2.00;;;22.30;99.90;;;;;;4995080;28;20524;-61
2021/08/02 12:04:15;;;;;;;2.20;2.00;;;22.50;99.90;;;;;;4995081;28;20516;-61
2021/08/02 12:06:51;;;;;;;2.10;1.97;;;22.50;99.90;;;;;;4994796;28;20446;-61
2021/08/02 12:09:28;;;;;;;2.70;2.50;;;22.50;99.90;;;;;;4994937;28;20457;-61
2021/08/02 12:11:57;;;;;;;2.17;2.07;;;22.60;99.90;;;;;;4994953;28;20474;-61
2021/08/02 12:14:24;;;;;;;1.87;1.77;;;22.60;99.90;;;;;;4995101;28;20546;-61
2021/08/02 12:17:01;;;;;;;1.57;1.47;;;22.50;99.90;;;;;;4994827;28;20528;-61
2021/08/02 12:19:28;;;;;;;1.23;1.23;;;22.80;99.90;;;;;;4994908;28;20445;-61
2021/08/02 12:21:55;;;;;;;1.80;1.43;;;23.10;99.90;;;;;;4994867;28;20513;-61
2021/08/02 12:24:22;;;;;;;2.40;1.30;;;23.50;99.90;;;;;;4994912;28;20504;-61
2021/08/02 12:26:51;;;;;;;1.00;1.00;;;23.90;99.90;;;;;;4994770;28;20476;-61
2021/08/02 12:29:23;;;;;;;1.30;1.27;;;24.20;99.90;;;;;;4994691;28;20464;-61
2021/08/02 12:31:55;;;;;;;1.80;1.00;;;24.10;99.90;;;;;;4994661;28;20510;-61
2021/08/02 12:34:22;;;;;;;1.30;1.20;;;24.00;99.90;;;;;;4994614;28;20457;-61
2021/08/02 12:36:51;;;;;;;1.40;1.30;;;23.90;99.90;;;;;;4994575;28;20560;-61
2021/08/02 12:39:18;;;;;;;1.63;1.30;;;23.90;99.90;;;;;;4994548;28;20469;-61
2021/08/02 12:41:45;;;;;;;2.20;1.50;;;24.00;99.90;;;;;;4994261;28;20528;-61
2021/08/02 12:44:11;;;;;;;1.73;1.50;;;24.00;99.90;;;;;;4994584;28;20458;-61
2021/08/02 12:46:39;;;;;;;1.60;1.50;;;23.60;99.90;;;;;;4994527;28;20450;-61
2021/08/02 12:49:06;;;;;;;1.63;1.37;;;23.70;99.90;;;;;;4994529;28;20457;-61
2021/08/02 12:51:33;;;;;;;1.43;1.43;;;23.70;99.90;;;;;;4994585;28;20473;-61
2021/08/02 12:53:59;;;;;;;1.77;1.73;;;23.70;99.90;;;;;;4994056;28;20795;-61
2021/08/02 12:56:26;;;;;;;1.90;1.73;;;23.80;99.90;;;;;;4994312;28;20473;-61
2021/08/02 12:58:53;;;;;;;1.63;1.53;;;23.70;99.90;;;;;;4993815;28;20458;-61
2021/08/02 13:01:20;;;;;;;1.63;1.53;;;23.70;99.90;;;;;;4994103;28;20856;-62
2021/08/02 13:03:48;;;;;;;1.60;1.60;;;23.60;99.90;;;;;;4994248;28;20789;-62
2021/08/02 13:06:15;;;;;;;1.57;1.30;;;23.50;99.90;;;;;;4994224;28;20454;-61
2021/08/02 13:08:43;;;;;;;1.20;1.20;;;23.60;99.90;;;;;;4994300;28;20464;-61
2021/08/02 13:11:10;;;;;;;2.90;1.60;;;24.00;99.90;;;;;;4994197;28;20478;-61
2021/08/02 13:13:37;;;;;;;1.43;1.43;;;24.30;99.90;;;;;;4994868;28;20457;-62
2021/08/02 13:16:04;;;;;;;1.33;1.30;;;24.60;99.90;;;;;;4994245;28;20458;-62
2021/08/02 13:18:30;;;;;;;1.50;1.50;;;24.50;99.90;;;;;;4994978;28;20453;-62
2021/08/02 13:20:58;;;;;;;1.50;1.40;;;24.60;99.90;;;;;;4994568;28;20478;-62
2021/08/02 13:23:32;;;;;;;2.20;1.70;;;24.50;99.90;;;;;;4994085;28;20943;-62
2021/08/02 13:28:43;;;;;;;1.37;1.37;;;24.30;99.90;;;;;;4994066;28;20502;-62
2021/08/02 13:31:12;;;;;;;2.23;1.40;;;24.50;99.90;;;;;;4994122;28;20470;-62
2021/08/02 13:33:39;;;;;;;3.93;1.20;;;24.60;99.90;;;;;;4994326;28;20461;-62
2021/08/02 13:36:07;;;;;;;1.53;1.47;;;24.70;99.90;;;;;;4994095;28;20819;-62
2021/08/02 13:38:34;;;;;;;1.63;1.53;;;24.60;99.90;;;;;;4994204;28;20496;-62
2021/08/02 13:41:00;;;;;;;1.80;1.70;;;24.70;99.90;;;;;;4994747;28;20482;-61
2021/08/02 13:43:27;;;;;;;1.67;1.57;;;24.60;99.90;;;;;;4994937;28;20457;-62
2021/08/02 13:45:54;;;;;;;2.43;1.33;;;24.70;99.90;;;;;;4994006;28;20832;-62
2021/08/02 13:48:21;;;;;;;1.70;1.60;;;24.90;99.90;;;;;;4994068;28;20461;-62
2021/08/02 13:50:49;;;;;;;1.50;1.40;;;24.90;99.90;;;;;;4993866;28;20505;-62
2021/08/02 13:53:17;;;;;;;1.60;1.50;;;25.20;99.90;;;;;;4994214;28;20464;-61
2021/08/02 13:55:44;;;;;;;1.17;1.17;;;25.20;99.90;;;;;;4993991;28;20830;-62
2021/08/02 13:58:10;;;;;;;2.80;1.73;;;25.20;99.90;;;;;;4993949;28;20465;-61
2021/08/02 14:00:37;;;;;;;2.00;1.77;;;25.20;99.90;;;;;;4993673;28;20500;-61
2021/08/02 14:03:04;;;;;;;1.60;1.50;;;24.90;99.90;;;;;;4993869;28;20434;-61
2021/08/02 14:05:31;;;;;;;1.20;1.20;;;25.00;99.90;;;;;;4993854;28;20457;-61
2021/08/02 14:07:58;;;;;;;1.77;1.60;;;25.20;99.90;;;;;;4993980;28;20450;-61
2021/08/02 14:10:26;;;;;;;1.37;1.27;;;25.40;99.00;;;;;;4995548;28;20464;-62
2021/08/02 14:12:58;;;;;;;1.43;1.43;;;25.70;99.60;;;;;;4996895;28;20454;-62
2021/08/02 14:15:30;;;;;;;2.23;1.50;;;25.90;97.80;;;;;;4997423;28;20442;-62
2021/08/02 14:18:04;;;;;;;1.50;1.23;;;26.00;97.40;;;;;;4997234;28;20492;-61
2021/08/02 14:20:32;;;;;;;1.37;1.27;;;25.80;97.80;;;;;;4997069;28;20437;-61
2021/08/02 14:22:59;;;;;;;1.47;1.40;;;25.70;97.50;;;;;;4997200;28;20481;-62
2021/08/02 14:25:27;;;;;;;1.57;1.43;;;25.50;99.90;;;;;;5001695;28;20449;-62
2021/08/02 14:27:54;;;;;;;1.30;1.30;;;25.50;99.90;;;;;;4998359;28;20450;-62
2021/08/02 14:30:21;;;;;;;2.27;1.80;;;25.50;99.20;;;;;;4998866;28;20458;-62
2021/08/02 14:32:48;;;;;;;1.80;1.70;;;25.30;99.40;;;;;;4996932;28;20457;-63
2021/08/02 14:35:15;;;;;;;1.53;1.43;;;25.20;99.90;;;;;;4996628;28;20970;-61
2021/08/02 14:37:43;;;;;;;2.80;2.20;;;25.00;99.90;;;;;;4996651;28;20504;-62
2021/08/02 14:40:12;;;;;;;2.00;1.90;;;24.90;99.90;;;;;;4996697;28;20458;-63
2021/08/02 14:42:43;;;;;;;2.47;1.80;;;24.60;99.90;;;;;;4996728;28;20477;-62
2021/08/02 14:45:11;;;;;;;1.60;1.50;;;24.50;99.90;;;;;;4996696;28;20446;-62
2021/08/02 14:47:38;;;;;;;1.97;1.87;;;24.20;99.90;;;;;;4996284;28;20882;-63
2021/08/02 14:50:09;;;;;;;1.97;1.80;;;24.10;99.90;;;;;;4996490;28;20453;-62
2021/08/02 14:52:37;;;;;;;3.07;2.77;;;24.00;99.90;;;;;;4996403;28;20477;-63
2021/08/02 14:55:06;;;;;;;2.50;2.30;;;23.90;99.90;;;;;;4996406;28;20461;-63
2021/08/02 14:57:34;;;;;;;1.83;1.73;;;23.80;99.90;;;;;;4996296;28;20478;-63
2021/08/02 15:00:06;;;;;;;1.90;1.80;;;23.80;99.90;;;;;;4997216;28;20497;-63
2021/08/02 15:02:33;;;;;;;3.43;2.30;;;24.00;99.90;;;;;;4995947;28;20485;-63
2021/08/02 15:05:01;;;;;;;1.70;1.60;;;24.30;99.90;;;;;;4996903;28;20453;-63
2021/08/02 15:07:28;;;;;;;3.30;1.93;;;24.30;99.90;;;;;;4996104;28;20935;-63
2021/08/02 15:09:58;;;;;;;2.93;1.77;;;24.40;99.90;;;;;;4995995;28;20457;-63
2021/08/02 15:12:25;;;;;;;1.70;1.60;;;24.20;99.90;;;;;;4995892;28;20505;-61
2021/08/02 15:14:52;;;;;;;1.90;1.80;;;24.10;99.90;;;;;;4996687;28;20449;-61
2021/08/02 15:17:21;;;;;;;2.00;1.90;;;24.20;99.90;;;;;;4996804;28;20477;-61
2021/08/02 15:19:54;;;;;;;2.30;1.80;;;24.20;99.90;;;;;;4995959;28;20445;-61
2021/08/02 15:22:32;;;;;;;1.60;1.60;;;24.10;99.90;;;;;;4995448;28;20879;-62
2021/08/02 15:25:01;;;;;;;2.20;2.00;;;23.90;99.90;;;;;;4996527;28;20438;-61
2021/08/02 15:27:29;;;;;;;2.90;1.80;;;24.00;99.90;;;;;;4995803;28;20458;-62
2021/08/02 15:30:01;;;;;;;1.80;1.77;;;23.90;99.90;;;;;;4995927;28;20449;-60
2021/08/02 15:32:33;;;;;;;2.17;2.00;;;23.90;99.90;;;;;;4995688;28;20899;-60
2021/08/02 15:35:03;;;;;;;3.00;2.10;;;23.90;99.90;;;;;;4995806;28;20473;-62
2021/08/02 15:37:33;;;;;;;2.00;1.80;;;23.80;99.90;;;;;;4995569;28;20569;-62
2021/08/02 15:40:01;;;;;;;3.07;2.00;;;23.70;99.90;;;;;;4996063;28;20462;-60
2021/08/02 15:42:28;;;;;;;2.43;1.90;;;23.70;99.90;;;;;;4996930;28;20503;-62
2021/08/02 15:45:07;;;;;;;2.07;1.97;;;23.70;99.90;;;;;;4997024;28;20935;-61
2021/08/02 15:47:36;;;;;;;1.67;1.57;;;23.70;99.90;;;;;;4995740;28;20449;-63
2021/08/02 15:50:06;;;;;;;1.40;1.33;;;23.80;99.90;;;;;;4996016;28;20449;-63
2021/08/02 15:52:38;;;;;;;1.70;1.60;;;23.80;99.90;;;;;;4995322;28;20497;-62
2021/08/02 15:55:06;;;;;;;1.83;1.30;;;23.80;99.90;;;;;;4995955;28;20438;-62
2021/08/02 15:57:38;;;;;;;1.20;1.20;;;23.80;99.90;;;;;;4994902;28;20520;-61
2021/08/02 16:00:07;;;;;;;1.40;1.37;;;23.80;99.90;;;;;;4995564;28;20442;-62
2021/08/02 16:02:43;;;;;;;1.63;1.50;;;23.80;99.90;;;;;;4995048;28;20489;-62
2021/08/02 16:05:11;;;;;;;1.93;1.33;;;23.90;99.90;;;;;;4995225;28;20807;-62
2021/08/02 16:07:40;;;;;;;1.23;1.20;;;24.20;99.90;;;;;;4995069;28;20457;-62
2021/08/02 16:10:11;;;;;;;1.13;1.13;;;24.40;99.90;;;;;;4995010;28;20454;-61
2021/08/02 16:12:44;;;;;;;0.80;0.80;;;24.50;99.90;;;;;;4995087;28;20482;-61
2021/08/02 16:15:12;;;;;;;1.50;1.40;;;24.50;99.90;;;;;;4994670;28;20852;-62
2021/08/02 16:17:43;;;;;;;1.60;1.50;;;24.70;99.90;;;;;;4994731;28;20489;-62
2021/08/02 16:20:11;;;;;;;1.80;1.70;;;24.70;99.90;;;;;;4994837;28;20449;-62
2021/08/02 16:22:38;;;;;;;7.87;7.00;;;24.60;99.90;;;;;;4994684;28;20500;-60
2021/08/02 16:25:05;;;;;;;2.00;1.90;;;24.60;99.90;;;;;;4994864;28;20457;-61
2021/08/02 16:27:32;;;;;;;1.80;1.70;;;24.30;99.90;;;;;;4994741;28;20839;-60
2021/08/02 16:30:00;;;;;;;1.37;1.37;;;23.90;99.90;;;;;;4994518;28;20462;-61
2021/08/02 16:32:26;;;;;;;2.60;1.47;;;23.70;99.90;;;;;;4994235;28;20477;-60
2021/08/02 16:34:54;;;;;;;1.30;1.30;;;23.60;99.90;;;;;;4994004;28;20465;-60
2021/08/02 16:37:21;;;;;;;2.63;2.27;;;23.50;99.90;;;;;;4994415;28;20454;-62
2021/08/02 16:39:48;;;;;;;2.97;1.93;;;23.20;99.90;;;;;;4994418;28;20465;-62
2021/08/02 16:42:14;;;;;;;4.20;1.60;;;23.00;99.90;;;;;;4994265;28;20978;-62
2021/08/02 16:44:41;;;;;;;1.83;1.73;;;22.80;99.90;;;;;;4994498;28;20457;-61
2021/08/02 16:47:08;;;;;;;2.33;2.13;;;22.70;99.90;;;;;;4994442;28;20460;-62
2021/08/02 16:49:35;;;;;;;2.30;1.50;;;22.50;99.90;;;;;;4994126;28;20821;-62
2021/08/02 16:52:04;;;;;;;1.93;1.70;;;22.30;99.90;;;;;;4994030;28;20532;-60
2021/08/02 16:54:30;;;;;;;1.93;1.40;;;22.40;99.90;;;;;;4994405;28;20448;-62
2021/08/02 16:56:57;;;;;;;1.27;1.00;;;22.30;99.90;;;;;;4994355;28;20951;-60